Portada
METAR-TAF:

METAR-TAF

Aeropuertos :

Worthington Municipal Airport

Worthington, Minnesota, Estados Unidos

latitud: 43-39N, longitud: 095-35W, altitud: 480 m

Observación

El informe se hizo hace 19 minutos, a las 07:56 UTC
Viento 7 kt del este
Temperatura 11°C
Humedad 71%
Presión 1024 hPa
Visibilidad: 16.1 km
Cielo despejado

METAR: KOTG 310756Z AUTO 09007KT 10SM CLR 11/06 A3025 RMK AO2 SLP246 T01110061

Hora: 03:15 (08:15 UTC)


TAF: falta

Observaciones y pronósticos meteorológicos de más de 4000 aeropuertos (mensajes METAR y TAF).

Los puntos amarillos y rojos representan las estaciones disponibles.

Ponga el ratón en el punto deseado para ver el nombre de la estación.

Haga clic para ver las observaciones y los pronósticos meteorológicos.

Para cambiar el mapa : haga clic en los botones verdes con una cruz de color negro para hacer un zoom, en el botón verde con un guión para alejar o en las flechas verdes para mapas adyacentes.


METAR-TAF: